createdAt,value
2018-01-02T00:02:01.262Z,98603.70
2018-01-02T00:04:28.765Z,98603.72
2018-01-02T00:06:56.228Z,98601.23
2018-01-02T00:09:23.692Z,98593.63
2018-01-02T00:11:51.137Z,98597.44
2018-01-02T00:14:18.766Z,98597.87
2018-01-02T00:16:46.257Z,98593.20
2018-01-02T00:19:13.715Z,98602.89
2018-01-02T00:21:41.183Z,98604.58
2018-01-02T00:24:08.647Z,98613.91
2018-01-02T00:26:36.103Z,98613.55
2018-01-02T00:29:03.560Z,98616.53
2018-01-02T00:31:31.030Z,98608.54
2018-01-02T00:33:58.504Z,98604.34
2018-01-02T00:36:25.959Z,98600.58
2018-01-02T00:38:53.423Z,98596.79
2018-01-02T00:41:20.904Z,98602.31
2018-01-02T00:43:48.355Z,98605.70
2018-01-02T00:46:15.879Z,98600.23
2018-01-02T00:48:43.502Z,98596.45
2018-01-02T00:51:11.358Z,98600.31
2018-01-02T00:53:38.802Z,98604.50
2018-01-02T00:56:06.289Z,98608.72
2018-01-02T00:58:33.862Z,98613.37
2018-01-02T01:01:01.295Z,98622.23
2018-01-02T01:03:28.751Z,98626.88
2018-01-02T01:05:56.190Z,98627.70
2018-01-02T01:08:23.641Z,98623.08
2018-01-02T01:10:51.103Z,98618.02
2018-01-02T01:13:18.542Z,98611.66
2018-01-02T01:15:46.009Z,98607.88
2018-01-02T01:18:13.468Z,98607.05
2018-01-02T01:20:40.908Z,98620.53
2018-01-02T01:23:08.363Z,98630.67
2018-01-02T01:25:35.834Z,98627.67
2018-01-02T01:28:03.299Z,98631.50
2018-01-02T01:30:30.746Z,98624.73
2018-01-02T01:32:58.240Z,98629.39
2018-01-02T01:35:25.767Z,98616.75
2018-01-02T01:37:53.219Z,98617.19
2018-01-02T01:40:21.234Z,98612.97
2018-01-02T01:42:48.697Z,98623.09
2018-01-02T01:45:17.083Z,98625.65
2018-01-02T01:47:44.555Z,98638.72
2018-01-02T01:50:12.045Z,98634.09
2018-01-02T01:52:39.506Z,98633.64
2018-01-02T01:55:06.959Z,98613.84
2018-01-02T01:57:34.420Z,98598.66
2018-01-02T02:00:01.871Z,98601.13
2018-01-02T02:02:29.326Z,98594.86
2018-01-02T02:04:56.802Z,98603.74
2018-01-02T02:07:24.291Z,98602.47
2018-01-02T02:09:51.753Z,98593.19
2018-01-02T02:12:19.238Z,98602.48
2018-01-02T02:14:46.698Z,98617.27
2018-01-02T02:17:14.215Z,98625.67
2018-01-02T02:19:41.713Z,98642.10
2018-01-02T02:22:09.824Z,98648.84
2018-01-02T02:24:37.275Z,98640.84
2018-01-02T02:27:04.739Z,98645.47
2018-01-02T02:29:32.191Z,98639.97
2018-01-02T02:31:59.636Z,98646.20
2018-01-02T02:34:27.107Z,98644.80
2018-01-02T02:36:54.562Z,98651.44
2018-01-02T02:39:22.008Z,98645.02
2018-01-02T02:41:49.474Z,98639.94
2018-01-02T02:44:18.770Z,98637.03
2018-01-02T02:46:46.282Z,98631.98
2018-01-02T02:49:13.736Z,98631.14
2018-01-02T02:51:41.195Z,98626.47
2018-01-02T02:54:08.655Z,98622.17
2018-01-02T02:56:36.139Z,98612.11
2018-01-02T02:59:03.595Z,98606.67
2018-01-02T03:01:31.096Z,98607.08
2018-01-02T03:03:58.525Z,98605.82
2018-01-02T03:06:26.378Z,98615.94
2018-01-02T03:08:53.922Z,98610.45
2018-01-02T03:11:21.364Z,98610.33
2018-01-02T03:13:48.822Z,98604.43
2018-01-02T03:16:16.415Z,98600.23
2018-01-02T03:18:43.972Z,98598.55
2018-01-02T03:21:11.426Z,98596.39
2018-01-02T03:23:38.881Z,98601.90
2018-01-02T03:26:06.337Z,98598.97
2018-01-02T03:28:33.966Z,98593.48
2018-01-02T03:31:01.459Z,98593.88
2018-01-02T03:33:29.008Z,98594.70
2018-01-02T03:35:56.448Z,98594.23
2018-01-02T03:38:23.911Z,98603.53
2018-01-02T03:40:51.369Z,98604.80
2018-01-02T03:43:18.814Z,98601.82
2018-01-02T03:45:46.272Z,98605.09
2018-01-02T03:48:13.716Z,98599.59
2018-01-02T03:50:41.172Z,98597.45
2018-01-02T03:53:08.619Z,98611.30
2018-01-02T03:55:36.174Z,98601.61
2018-01-02T03:58:03.616Z,98599.92
2018-01-02T04:00:31.062Z,98607.53
2018-01-02T04:02:58.512Z,98607.95
2018-01-02T04:05:25.954Z,98606.23
2018-01-02T04:07:53.395Z,98608.77
2018-01-02T04:10:20.864Z,98601.27
2018-01-02T04:12:48.336Z,98612.72
2018-01-02T04:15:15.978Z,98622.73
2018-01-02T04:17:43.454Z,98611.38
2018-01-02T04:20:10.890Z,98624.88
2018-01-02T04:22:38.355Z,98637.50
2018-01-02T04:25:05.834Z,98640.48
2018-01-02T04:27:33.282Z,98641.39
2018-01-02T04:30:00.744Z,98648.19
2018-01-02T04:32:28.177Z,98660.88
2018-01-02T04:34:55.651Z,98666.36
2018-01-02T04:37:23.107Z,98662.16
2018-01-02T04:39:50.567Z,98659.22
2018-01-02T04:42:18.038Z,98655.00
2018-01-02T04:44:45.490Z,98653.67
2018-01-02T04:47:12.930Z,98654.50
2018-01-02T04:49:40.390Z,98649.08
2018-01-02T04:52:07.850Z,98648.69
2018-01-02T04:54:35.310Z,98648.72
2018-01-02T04:57:02.787Z,98648.79
2018-01-02T04:59:30.240Z,98644.58
2018-01-02T05:01:57.726Z,98638.27
2018-01-02T05:04:25.172Z,98646.25
2018-01-02T05:06:52.631Z,98641.63
2018-01-02T05:09:20.096Z,98642.86
2018-01-02T05:11:47.543Z,98643.32
2018-01-02T05:14:15.200Z,98648.38
2018-01-02T05:16:42.658Z,98658.04
2018-01-02T05:19:10.100Z,98654.16
2018-01-02T05:21:37.554Z,98657.47
2018-01-02T05:24:04.993Z,98657.36
2018-01-02T05:26:32.875Z,98650.93
2018-01-02T05:29:00.370Z,98655.30
2018-01-02T05:31:27.798Z,98654.56
2018-01-02T05:33:55.257Z,98652.80
2018-01-02T05:36:22.719Z,98668.47
2018-01-02T05:38:50.210Z,98669.34
2018-01-02T05:41:17.646Z,98660.13
2018-01-02T05:43:45.104Z,98686.95
2018-01-02T05:46:12.555Z,98678.80
2018-01-02T05:48:40.043Z,98664.52
2018-01-02T05:51:07.497Z,98661.41
2018-01-02T05:53:34.965Z,98673.61
2018-01-02T05:56:02.430Z,98671.85
2018-01-02T05:58:29.950Z,98685.81
2018-01-02T06:00:57.531Z,98672.77
2018-01-02T06:03:24.995Z,98672.75
2018-01-02T06:05:52.454Z,98671.33
2018-01-02T06:08:19.905Z,98675.48
2018-01-02T06:10:47.363Z,98665.44
2018-01-02T06:13:14.825Z,98650.90
2018-01-02T06:15:42.279Z,98676.80
2018-01-02T06:18:09.733Z,98678.60
2018-01-02T06:20:37.196Z,98677.32
2018-01-02T06:23:04.792Z,98692.56
2018-01-02T06:25:32.235Z,98664.27
2018-01-02T06:27:59.703Z,98707.82
2018-01-02T06:30:27.527Z,98694.36
2018-01-02T06:32:55.011Z,98710.47
2018-01-02T06:35:22.467Z,98702.73
2018-01-02T06:37:49.907Z,98693.83
2018-01-02T06:40:17.422Z,98710.47
2018-01-02T06:42:45.061Z,98701.98
2018-01-02T06:45:12.499Z,98720.69
2018-01-02T06:47:39.980Z,98742.63
2018-01-02T06:50:07.429Z,98736.59
2018-01-02T06:52:34.868Z,98733.28
2018-01-02T06:55:02.339Z,98743.79
2018-01-02T06:57:29.792Z,98755.62
2018-01-02T06:59:57.255Z,98739.92
2018-01-02T07:02:24.719Z,98744.54
2018-01-02T07:04:52.195Z,98751.33
2018-01-02T07:07:19.723Z,98765.80
2018-01-02T07:09:47.196Z,98779.30
2018-01-02T07:12:14.692Z,98764.02
2018-01-02T07:14:42.382Z,98761.85
2018-01-02T07:17:09.863Z,98783.92
2018-01-02T07:19:37.314Z,98778.39
2018-01-02T07:22:04.790Z,98764.35
2018-01-02T07:24:32.446Z,98774.47
2018-01-02T07:26:59.923Z,98784.72
2018-01-02T07:29:27.386Z,98782.08
2018-01-02T07:31:54.869Z,98774.43
2018-01-02T07:34:22.323Z,98776.61
2018-01-02T07:36:49.817Z,98778.69
2018-01-02T07:39:17.369Z,98796.09
2018-01-02T07:41:44.836Z,98785.05
2018-01-02T07:44:12.311Z,98795.94
2018-01-02T07:46:39.929Z,98789.23
2018-01-02T07:49:07.423Z,98781.55
2018-01-02T07:51:34.939Z,98804.42
2018-01-02T07:54:02.431Z,98806.97
2018-01-02T07:56:29.892Z,98801.50
2018-01-02T07:58:57.363Z,98819.28
2018-01-02T08:01:24.824Z,98810.22
2018-01-02T08:03:52.298Z,98812.19
2018-01-02T08:06:19.925Z,98815.12
2018-01-02T08:08:47.401Z,98835.34
2018-01-02T08:11:14.882Z,98840.40
2018-01-02T08:13:42.330Z,98820.76
2018-01-02T08:16:09.818Z,98862.91
2018-01-02T08:18:38.260Z,98845.02
2018-01-02T08:21:05.738Z,98850.02
2018-01-02T08:23:33.231Z,98841.44
2018-01-02T08:26:00.670Z,98836.56
2018-01-02T08:28:28.162Z,98833.09
2018-01-02T08:30:55.640Z,98859.72
2018-01-02T08:33:23.095Z,98843.08
2018-01-02T08:35:50.579Z,98851.45
2018-01-02T08:38:18.030Z,98845.18
2018-01-02T08:40:45.495Z,98846.14
2018-01-02T08:43:13.027Z,98853.74
2018-01-02T08:45:40.480Z,98860.06
2018-01-02T08:48:07.914Z,98872.47
2018-01-02T08:50:37.599Z,98864.63
2018-01-02T08:53:05.158Z,98891.67
2018-01-02T08:55:32.700Z,98882.55
2018-01-02T08:58:00.175Z,98870.41
2018-01-02T09:00:28.244Z,98904.17
2018-01-02T09:02:55.740Z,98883.11
2018-01-02T09:05:23.200Z,98893.54
2018-01-02T09:07:50.673Z,98873.91
2018-01-02T09:10:18.811Z,98900.39
2018-01-02T09:12:48.979Z,98881.16
2018-01-02T09:15:17.468Z,98909.86
2018-01-02T09:17:44.947Z,98876.32
2018-01-02T09:20:12.381Z,98869.41
2018-01-02T09:22:39.842Z,98870.59
2018-01-02T09:25:07.309Z,98861.69
2018-01-02T09:27:34.818Z,98902.78
2018-01-02T09:30:02.530Z,98893.17
2018-01-02T09:32:30.531Z,98889.08
2018-01-02T09:34:58.012Z,98879.67
2018-01-02T09:39:59.129Z,98896.94
2018-01-02T09:42:26.637Z,98894.92
2018-01-02T09:44:54.105Z,98896.52
2018-01-02T09:47:21.687Z,98878.85
2018-01-02T09:49:49.372Z,98866.63
2018-01-02T09:52:18.049Z,98873.86
2018-01-02T09:54:45.742Z,98871.80
2018-01-02T09:57:13.529Z,98896.03
2018-01-02T09:59:41.140Z,98857.33
2018-01-02T10:02:08.760Z,98874.55
2018-01-02T10:04:36.566Z,98873.57
2018-01-02T10:07:04.115Z,98886.13
2018-01-02T10:09:32.690Z,98897.50
2018-01-02T10:12:00.827Z,98900.25
2018-01-02T10:14:28.355Z,98872.34
2018-01-02T10:16:56.084Z,98877.22
2018-01-02T10:19:23.773Z,98876.12
2018-01-02T10:21:51.522Z,98896.42
2018-01-02T10:24:18.975Z,98877.52
2018-01-02T10:26:46.517Z,98882.94
2018-01-02T10:29:13.975Z,98904.80
2018-01-02T10:31:41.491Z,98873.67
2018-01-02T10:34:08.964Z,98880.36
2018-01-02T10:36:36.450Z,98867.02
2018-01-02T10:39:03.932Z,98880.87
2018-01-02T10:41:31.408Z,98899.95
2018-01-02T10:43:58.866Z,98885.84
2018-01-02T10:46:26.323Z,98924.67
2018-01-02T10:48:53.791Z,98894.55
2018-01-02T10:51:21.249Z,98887.37
2018-01-02T10:53:48.758Z,98893.02
2018-01-02T10:56:17.035Z,98882.67
2018-01-02T10:58:44.510Z,98892.36
2018-01-02T11:01:17.516Z,98878.42
2018-01-02T11:03:44.973Z,98886.27
2018-01-02T11:06:12.594Z,98897.08
2018-01-02T11:08:40.042Z,98886.56
2018-01-02T11:11:13.132Z,98884.19
2018-01-02T11:13:46.439Z,98903.30
2018-01-02T11:16:14.135Z,98871.38
2018-01-02T11:18:41.619Z,98907.91
2018-01-02T11:21:09.078Z,98873.45
2018-01-02T11:23:36.578Z,98866.98
2018-01-02T11:26:04.091Z,98871.39
2018-01-02T11:28:31.583Z,98890.69
2018-01-02T11:30:59.040Z,98872.42
2018-01-02T11:33:26.506Z,98903.45
2018-01-02T11:35:54.005Z,98861.77
2018-01-02T11:38:21.604Z,98876.05
2018-01-02T11:40:49.100Z,98890.22
2018-01-02T11:43:16.564Z,98886.75
2018-01-02T11:45:44.042Z,98898.54
2018-01-02T11:48:11.509Z,98890.64
2018-01-02T11:50:38.960Z,98887.11
2018-01-02T11:53:06.476Z,98883.95
2018-01-02T11:55:33.956Z,98882.62
2018-01-02T11:58:01.420Z,98902.61
2018-01-02T12:00:29.083Z,98891.31
2018-01-02T12:02:56.562Z,98915.00
2018-01-02T12:05:24.010Z,98910.37
2018-01-02T12:07:52.723Z,98884.30
2018-01-02T12:10:21.272Z,98932.81
2018-01-02T12:12:49.000Z,98897.73
2018-01-02T12:15:16.519Z,98897.73
2018-01-02T12:17:44.003Z,98905.95
2018-01-02T12:20:11.463Z,98895.20
2018-01-02T12:22:39.891Z,98898.31
2018-01-02T12:25:07.352Z,98902.20
2018-01-02T12:27:34.806Z,98900.02
2018-01-02T12:30:02.326Z,98907.91
2018-01-02T12:32:29.949Z,98901.23
2018-01-02T12:34:57.492Z,98911.37
2018-01-02T12:37:24.984Z,98919.41
2018-01-02T12:39:52.459Z,98908.63
2018-01-02T12:42:19.945Z,98913.81
2018-01-02T12:44:47.415Z,98908.55
2018-01-02T12:47:14.880Z,98920.09
2018-01-02T12:49:42.361Z,98911.55
2018-01-02T12:52:09.818Z,98914.56
2018-01-02T12:54:37.358Z,98910.08
2018-01-02T12:57:04.811Z,98931.25
2018-01-02T12:59:32.275Z,98923.34
2018-01-02T13:01:59.760Z,98915.33
2018-01-02T13:04:27.219Z,98918.17
2018-01-02T13:06:54.677Z,98920.19
2018-01-02T13:09:22.148Z,98918.19
2018-01-02T13:11:49.593Z,98921.14
2018-01-02T13:14:17.104Z,98915.23
2018-01-02T13:16:44.573Z,98935.80
2018-01-02T13:19:12.036Z,98929.27
2018-01-02T13:21:39.487Z,98943.04
2018-01-02T13:24:06.950Z,98932.45
2018-01-02T13:26:34.626Z,98931.91
2018-01-02T13:29:02.112Z,98936.98
2018-01-02T13:31:29.551Z,98919.39
2018-01-02T13:33:56.999Z,98932.66
2018-01-02T13:36:24.472Z,98931.77
2018-01-02T13:38:51.942Z,98946.33
2018-01-02T13:41:19.435Z,98957.37
2018-01-02T13:43:46.876Z,98982.09
2018-01-02T13:46:14.637Z,98946.59
2018-01-02T13:48:42.187Z,98946.95
2018-01-02T13:51:09.723Z,98947.75
2018-01-02T13:53:37.270Z,98949.83
2018-01-02T13:56:04.756Z,98967.20
2018-01-02T13:58:32.664Z,98956.25
2018-01-02T14:01:00.127Z,99010.33
2018-01-02T14:03:27.635Z,98968.51
2018-01-02T14:05:55.097Z,98972.05
2018-01-02T14:08:22.562Z,98952.97
2018-01-02T14:10:50.022Z,98966.98
2018-01-02T14:13:17.515Z,98957.48
2018-01-02T14:15:44.964Z,98982.45
2018-01-02T14:18:12.421Z,98986.56
2018-01-02T14:20:40.632Z,98979.55
2018-01-02T14:23:08.091Z,98977.00
2018-01-02T14:25:35.607Z,98999.23
2018-01-02T14:28:03.081Z,98995.63
2018-01-02T14:30:30.534Z,99000.67
2018-01-02T14:32:57.999Z,99002.08
2018-01-02T14:35:25.473Z,98994.60
2018-01-02T14:37:52.956Z,99012.27
2018-01-02T14:40:20.415Z,99008.71
2018-01-02T14:42:48.599Z,99056.14
2018-01-02T14:45:16.283Z,99023.98
2018-01-02T14:47:43.747Z,99036.68
2018-01-02T14:50:11.219Z,99038.17
2018-01-02T14:52:38.667Z,99028.48
2018-01-02T14:55:06.128Z,99033.33
2018-01-02T14:57:33.635Z,99054.20
2018-01-02T15:00:01.153Z,99030.05
2018-01-02T15:02:28.607Z,99034.28
2018-01-02T15:04:56.096Z,99057.26
2018-01-02T15:07:23.538Z,99049.69
2018-01-02T15:09:51.035Z,99059.08
2018-01-02T15:12:18.499Z,99082.44
2018-01-02T15:14:45.935Z,99060.84
2018-01-02T15:17:16.047Z,99063.84
2018-01-02T15:19:43.681Z,99084.70
2018-01-02T15:22:11.238Z,99097.02
2018-01-02T15:24:38.888Z,99074.58
2018-01-02T15:27:06.337Z,99080.06
2018-01-02T15:29:33.963Z,99120.40
2018-01-02T15:32:01.435Z,99109.80
2018-01-02T15:34:28.891Z,99100.52
2018-01-02T15:36:56.340Z,99111.61
2018-01-02T15:39:24.011Z,99105.68
2018-01-02T15:41:52.020Z,99109.96
2018-01-02T15:44:19.531Z,99122.70
2018-01-02T15:46:46.995Z,99127.81
2018-01-02T15:49:14.591Z,99135.05
2018-01-02T16:04:37.130Z,99143.21
2018-01-02T16:07:04.586Z,99166.92
2018-01-02T16:09:32.082Z,99155.52
2018-01-02T16:11:59.580Z,99161.02
2018-01-02T16:14:27.040Z,99162.73
2018-01-02T16:16:54.612Z,99176.73
2018-01-02T16:19:22.305Z,99174.61
2018-01-02T16:21:49.795Z,99178.44
2018-01-02T16:24:17.271Z,99185.66
2018-01-02T16:26:44.763Z,99195.41
2018-01-02T16:29:12.275Z,99192.43
2018-01-02T16:31:39.842Z,99191.58
2018-01-02T16:34:07.292Z,99204.30
2018-01-02T16:36:34.775Z,99189.05
2018-01-02T16:39:02.370Z,99201.80
2018-01-02T16:41:29.867Z,99192.91
2018-01-02T16:43:57.363Z,99221.27
2018-01-02T16:46:24.826Z,99196.73
2018-01-02T16:48:52.318Z,99202.65
2018-01-02T16:51:19.774Z,99208.61
2018-01-02T16:53:48.103Z,99234.39
2018-01-02T16:56:16.088Z,99223.41
2018-01-02T16:58:43.687Z,99218.73
2018-01-02T17:01:11.840Z,99214.08
2018-01-02T17:03:39.301Z,99212.36
2018-01-02T17:06:06.783Z,99214.91
2018-01-02T17:08:38.260Z,99219.56
2018-01-02T17:11:05.714Z,99226.78
2018-01-02T17:13:33.251Z,99226.33
2018-01-02T17:16:00.788Z,99240.70
2018-01-02T17:18:28.947Z,99224.63
2018-01-02T17:20:56.484Z,99274.17
2018-01-02T17:23:24.003Z,99250.06
2018-01-02T17:25:51.515Z,99255.97
2018-01-02T17:28:19.116Z,99249.19
2018-01-02T17:30:47.805Z,99266.15
2018-01-02T17:33:16.173Z,99260.24
2018-01-02T17:35:43.671Z,99256.82
2018-01-02T17:38:11.127Z,99259.80
2018-01-02T17:40:38.605Z,99267.47
2018-01-02T17:43:06.092Z,99262.40
2018-01-02T17:45:33.587Z,99262.39
2018-01-02T17:48:01.053Z,99280.99
2018-01-02T17:50:40.811Z,99272.08
2018-01-02T17:53:08.358Z,99274.61
2018-01-02T17:55:35.825Z,99272.50
2018-01-02T17:58:03.462Z,99280.98
2018-01-02T18:00:31.112Z,99272.92
2018-01-02T18:02:58.651Z,99284.77
2018-01-02T18:05:26.188Z,99286.47
2018-01-02T18:07:53.713Z,99295.78
2018-01-02T18:10:21.196Z,99283.91
2018-01-02T18:12:49.392Z,99289.88
2018-01-02T18:15:16.871Z,99315.70
2018-01-02T18:17:44.359Z,99284.81
2018-01-02T18:20:11.943Z,99291.58
2018-01-02T18:22:39.422Z,99285.61
2018-01-02T18:25:06.875Z,99277.13
2018-01-02T18:27:34.724Z,99282.25
2018-01-02T18:30:02.525Z,99289.89
2018-01-02T18:32:30.092Z,99287.34
2018-01-02T18:34:57.658Z,99288.16
2018-01-02T18:37:25.179Z,99294.13
2018-01-02T18:39:52.712Z,99291.57
2018-01-02T18:42:20.299Z,99300.02
2018-01-02T18:44:47.764Z,99288.61
2018-01-02T18:47:15.260Z,99292.41
2018-01-02T18:49:42.731Z,99294.52
2018-01-02T18:52:10.302Z,99300.08
2018-01-02T18:54:37.850Z,99298.81
2018-01-02T18:57:05.356Z,99301.38
2018-01-02T18:59:32.912Z,99299.27
2018-01-02T19:02:00.418Z,99309.85
2018-01-02T19:04:27.944Z,99309.00
2018-01-02T19:06:55.625Z,99305.17
2018-01-02T19:09:23.133Z,99308.56
2018-01-02T19:11:50.612Z,99302.66
2018-01-02T19:14:18.978Z,99320.85
2018-01-02T19:16:46.508Z,99313.24
2018-01-02T19:19:14.145Z,99303.08
2018-01-02T19:21:42.740Z,99312.41
2018-01-02T19:24:10.250Z,99312.83
2018-01-02T19:26:37.977Z,99309.44
2018-01-02T19:29:05.761Z,99323.84
2018-01-02T19:31:33.548Z,99332.30
2018-01-02T19:34:01.146Z,99317.03
2018-01-02T19:36:29.046Z,99333.13
2018-01-02T19:38:56.987Z,99350.05
2018-01-02T19:41:24.800Z,99339.04
2018-01-02T19:43:52.487Z,99334.83
2018-01-02T19:46:20.315Z,99341.62
2018-01-02T19:48:48.198Z,99342.04
2018-01-02T19:51:16.414Z,99352.61
2018-01-02T19:53:44.239Z,99357.27
2018-01-02T19:56:12.081Z,99366.98
2018-01-02T19:58:40.536Z,99372.95
2018-01-02T20:01:08.462Z,99378.88
2018-01-02T20:03:36.394Z,99387.75
2018-01-02T20:06:04.368Z,99380.11
2018-01-02T20:08:32.441Z,99375.47
2018-01-02T20:11:00.226Z,99375.03
2018-01-02T20:13:28.064Z,99369.95
2018-01-02T20:15:55.922Z,99363.16
2018-01-02T20:18:29.421Z,99375.46
2018-01-02T20:20:57.278Z,99374.19
2018-01-02T20:23:25.117Z,99369.97
2018-01-02T20:25:53.138Z,99376.75
2018-01-02T20:28:22.184Z,99375.49
2018-01-02T20:30:50.755Z,99387.33
2018-01-02T20:33:18.853Z,99396.21
2018-01-02T20:35:48.609Z,99398.33
2018-01-02T20:38:16.497Z,99402.56
2018-01-02T20:40:44.414Z,99413.99
2018-01-02T20:43:12.226Z,99413.59
2018-01-02T20:45:40.187Z,99430.95
2018-01-02T20:48:08.207Z,99420.80
2018-01-02T20:50:36.854Z,99423.72
2018-01-02T20:53:04.659Z,99424.95
2018-01-02T20:55:32.547Z,99415.65
2018-01-02T20:58:00.388Z,99404.22
2018-01-02T21:00:28.466Z,99412.23
2018-01-02T21:02:56.268Z,99407.61
2018-01-02T21:05:24.158Z,99395.75
2018-01-02T21:07:51.961Z,99394.06
2018-01-02T21:10:19.867Z,99383.05
2018-01-02T21:12:49.582Z,99391.51
2018-01-02T21:15:18.565Z,99397.43
2018-01-02T21:17:46.524Z,99393.63
2018-01-02T21:20:14.501Z,99402.48
2018-01-02T21:22:42.567Z,99383.47
2018-01-02T21:25:10.469Z,99379.65
2018-01-02T21:27:38.292Z,99378.78
2018-01-02T21:30:07.904Z,99396.14
2018-01-02T21:32:36.065Z,99380.50
2018-01-02T21:35:04.427Z,99394.47
2018-01-02T21:37:32.568Z,99409.70
2018-01-02T21:40:00.499Z,99413.92
2018-01-02T21:42:28.712Z,99412.23
2018-01-02T21:44:56.697Z,99405.90
2018-01-02T21:47:24.581Z,99409.70
2018-01-02T21:49:52.556Z,99406.30
2018-01-02T21:52:21.648Z,99408.41
2018-01-02T21:54:50.232Z,99419.81
2018-01-02T21:57:18.318Z,99416.85
2018-01-02T21:59:46.455Z,99416.88
2018-01-02T22:02:14.392Z,99415.99
2018-01-02T22:04:42.237Z,99409.67
2018-01-02T22:07:09.972Z,99398.24
2018-01-02T22:09:37.811Z,99407.13
2018-01-02T22:12:05.675Z,99408.39
2018-01-02T22:14:33.419Z,99404.15
2018-01-02T22:17:01.066Z,99394.44
2018-01-02T22:19:28.717Z,99398.22
2018-01-02T22:21:56.229Z,99395.69
2018-01-02T22:24:23.784Z,99396.95
2018-01-02T22:26:51.242Z,99393.58
2018-01-02T22:29:18.717Z,99390.59
2018-01-02T22:31:46.243Z,99393.98
2018-01-02T22:34:13.739Z,99386.38
2018-01-02T22:36:41.224Z,99378.78
2018-01-02T22:39:08.714Z,99382.56
2018-01-02T22:41:36.167Z,99374.94
2018-01-02T22:44:03.635Z,99368.17
2018-01-02T22:46:31.323Z,99367.75
2018-01-02T22:48:58.787Z,99368.61
2018-01-02T22:51:26.251Z,99362.69
2018-01-02T22:53:53.719Z,99360.57
2018-01-02T22:56:21.191Z,99365.23
2018-01-02T22:58:48.708Z,99358.04
2018-01-02T23:01:16.178Z,99350.40
2018-01-02T23:03:43.614Z,99346.56
2018-01-02T23:06:11.076Z,99337.30
2018-01-02T23:08:38.515Z,99339.41
2018-01-02T23:11:05.962Z,99347.45
2018-01-02T23:13:33.463Z,99341.92
2018-01-02T23:16:00.919Z,99327.55
2018-01-02T23:18:28.424Z,99345.30
2018-01-02T23:20:55.939Z,99331.80
2018-01-02T23:23:23.416Z,99328.38
2018-01-02T23:25:50.890Z,99319.91
2018-01-02T23:28:18.379Z,99325.00
2018-01-02T23:30:45.831Z,99316.55
2018-01-02T23:33:13.328Z,99316.96
2018-01-02T23:35:40.822Z,99316.09
2018-01-02T23:38:08.276Z,99313.55
2018-01-02T23:40:35.848Z,99309.77
2018-01-02T23:43:03.322Z,99308.91
2018-01-02T23:45:30.771Z,99299.59
2018-01-02T23:47:58.296Z,99308.48
2018-01-02T23:50:25.738Z,99305.53
2018-01-02T23:52:53.222Z,99293.30
2018-01-02T23:55:20.671Z,99286.95
2018-01-02T23:57:48.147Z,99305.11
